Aeroporto :
LOGIN :

Iscrizione | Disclaimer

   EN    FR    IT 

 










Sommario :    VFR   VFR Marginale   IFR   IFR Intensivo   IFR Molto Intensivo
Visibilità : 
Base nubi : 
>= 8 km
>= 3000ft
5 / 8 km
1000 / 3000 ft
1500m / 5 km
500 / 1000 ft
800 / 1500m
200 / 500 ft
< 800m
< 200 ft
Simboli :   Temporali  Nebbia  Neve Forte  Precipitazioni Forti  Vento > 20 kt
SIGMETs :   Varie  Temporali  Ghiacco  Turbolenza  Onda orograficha  Ceneri Vulcaniche






- Altitudine del aeroporto : 646 ft
- Codice IATA : VNO


EYVI - Vilnius int.

ULTIMO METAR :
  • 270450Z 22005KT 9999 OVC005 M00/M01 Q1013 R19/2///95 TEMPO 3000 -FZDZ BR

METARs OBSOLETI :
  • 270420Z 23005KT 9999 OVC005 M00/M01 Q1013 R19/2///95 TEMPO 3000 -FZDZ BR
  • 270350Z 24005KT 9999 -SN OVC003 M00/M01 Q1014 R19/2///95 TEMPO 3000 -FZDZ BR
  • 270320Z 22005KT 8000 -SN SCT004 BKN019 OVC031 M00/M01 Q1014 R19/2///95 TEMPO 1500 FZDZ BR
  • 270250Z 22005KT 9999 -SN BKN004 OVC017 M00/M01 Q1014 R19/2///95 BECMG -FZDZ
  • 270220Z 22005KT 9999 BKN005 OVC019 M00/M01 Q1014 R19/2///95 BECMG -FZDZ

TAF TAF EYVI
Valido dal 27 a 00 ore il 28 a 00 ore UTC


262309Z 2700/2724 21006KT 5000 BR OVC004
BECMG 2701/2702 3000 FZDZ OVC002
TEMPO 2702/2707 1000
TEMPO 2707/2718 1500 RASN
BECMG 2719/2721 OVC006



MetMap, La meteo Aeronautica in un colpo d'occhio ! - Copyright ORBIFLY Dicembre 2007 - Disclaimer

ORBIFLY MET'MAP TEAM :

Programmazione e sviluppo : Alexandra Zaïnal
Concezione : Baudouin d'Aumeries
Aiuto per la programmazione : Marc-Olivier Méhu
Supporto tecnico e logistico : Manuel Goepfert
Aiuto per la traduzione : Arnaldo La Scala

Contatto : metmap@orbifly.com




FONTI E CREDITI :

   NOAA